Terminal Aerodrome Forecast
Issued by NWS

Current Version | Previous Version | Graphics & Text | Print | Product List | Glossary On
Versions: 1 2 3 4 5 6 7 8 9 10 11 12 13 14 15 16 17 18 19 20 21 22 23
000
FTUS41 KILN 180532
TAFLUK
TAF
KLUK 180532Z 1806/1906 00000KT 1/2SM FG SCT090 BKN250
     FM181200 20004KT P6SM BKN090
     FM181800 20004KT P6SM VCSH SCT045 BKN090
     FM190000 00000KT P6SM BKN090=

USA.gov is the U.S. government's official web portal to all federal, state and local government web resources and services.